Time;durP1;ratioP1;P1;durP2;ratioP2;P2;SDS_P1;SDS_P2;PMS_P1;PMS_P2;Temp;Humidity;BMP_temperature;BMP_pressure;BME280_temperature;BME280_humidity;BME280_pressure;Samples;Min_cycle;Max_cycle;Signal;HPM_P1;HPM_P2
2022/08/26 00:00:53;;;;;;;23.55;11.57;;;19.00;99.90;;;;;;4866225;29;20028;-76
2022/08/26 00:03:22;;;;;;;25.63;12.80;;;18.80;99.90;;;;;;4864830;29;20039;-80
2022/08/26 00:05:51;;;;;;;26.67;12.70;;;19.00;99.90;;;;;;4866213;29;20037;-77
2022/08/26 00:08:18;;;;;;;22.73;13.30;;;18.50;99.90;;;;;;4866447;29;20025;-78
2022/08/26 00:10:44;;;;;;;26.98;13.68;;;18.40;99.90;;;;;;4865998;29;20025;-76
2022/08/26 00:13:11;;;;;;;21.73;12.60;;;18.60;99.90;;;;;;4866448;29;20056;-78
2022/08/26 00:15:39;;;;;;;26.17;11.85;;;18.60;99.90;;;;;;4865158;29;20520;-79
2022/08/26 00:18:05;;;;;;;19.25;11.00;;;18.50;99.90;;;;;;4866266;29;20037;-77
2022/08/26 00:20:32;;;;;;;25.67;11.98;;;18.50;99.90;;;;;;4865847;29;20029;-79
2022/08/26 00:22:59;;;;;;;29.30;13.55;;;18.40;99.90;;;;;;4865675;29;20731;-82
2022/08/26 00:25:25;;;;;;;24.80;11.02;;;18.30;99.90;;;;;;4865937;29;20702;-81
2022/08/26 00:27:51;;;;;;;28.50;13.77;;;18.30;99.90;;;;;;4867100;29;20527;-78
2022/08/26 00:30:21;;;;;;;26.13;12.40;;;18.20;99.90;;;;;;4849416;29;20029;-78
2022/08/26 00:32:47;;;;;;;28.38;11.50;;;18.10;99.90;;;;;;4849035;29;20048;-80
2022/08/26 00:35:13;;;;;;;28.35;13.90;;;18.00;99.90;;;;;;4864411;29;20550;-79
2022/08/26 00:37:40;;;;;;;28.80;13.18;;;18.00;99.90;;;;;;4865691;29;20057;-77
2022/08/26 00:40:09;;;;;;;24.00;10.93;;;18.60;99.90;;;;;;4865561;29;20021;-77
2022/08/26 00:42:35;;;;;;;29.05;13.25;;;18.10;99.90;;;;;;4865477;29;20021;-80
2022/08/26 00:45:01;;;;;;;24.65;11.82;;;18.00;99.90;;;;;;4864222;29;20104;-78
2022/08/26 00:47:56;;;;;;;28.42;13.95;;;18.20;99.90;;;;;;4865884;29;20496;-87
2022/08/26 00:50:26;;;;;;;24.85;12.38;;;18.20;99.90;;;;;;4865013;29;20045;-77
2022/08/26 00:52:53;;;;;;;26.05;11.88;;;18.40;99.90;;;;;;4865398;29;20243;-82
2022/08/26 00:55:34;;;;;;;32.38;12.75;;;18.80;99.90;;;;;;4865840;29;20013;-79
2022/08/26 00:58:01;;;;;;;22.10;11.68;;;19.10;99.90;;;;;;4849057;29;20028;-76
2022/08/26 01:00:30;;;;;;;26.02;12.18;;;19.30;99.90;;;;;;4865602;29;20029;-77
2022/08/26 01:02:58;;;;;;;25.08;13.60;;;20.70;99.90;;;;;;4865514;29;20068;-77
2022/08/26 01:05:24;;;;;;;27.20;12.80;;;19.10;99.90;;;;;;4865412;29;20044;-79
2022/08/26 01:07:50;;;;;;;29.38;13.80;;;19.20;99.90;;;;;;4866016;29;20018;-79
2022/08/26 01:10:33;;;;;;;26.13;13.68;;;18.60;99.90;;;;;;4865456;29;20021;-79
2022/08/26 01:13:05;;;;;;;26.92;12.38;;;19.60;99.90;;;;;;4849070;29;20261;-78
2022/08/26 01:15:38;;;;;;;20.10;10.40;;;15.80;99.90;;;;;;4865506;29;20152;-78
2022/08/26 01:18:06;;;;;;;25.90;12.30;;;18.90;99.90;;;;;;4849134;29;20028;-77
2022/08/26 01:20:40;;;;;;;22.13;10.73;;;18.80;99.90;;;;;;4865517;29;20562;-77
2022/08/26 01:23:07;;;;;;;;;;;19.10;99.90;;;;;;4851372;29;20030;-84
2022/08/26 01:25:39;;;;;;;21.13;11.23;;;19.30;99.90;;;;;;4865553;29;19920;-80
2022/08/26 01:28:08;;;;;;;20.85;10.70;;;19.80;99.90;;;;;;4865737;29;20193;-81
2022/08/26 01:30:37;;;;;;;27.55;11.20;;;19.80;99.90;;;;;;4865719;29;20666;-78
2022/08/26 01:33:11;;;;;;;30.58;13.38;;;19.80;99.90;;;;;;4849237;29;20081;-83
2022/08/26 01:35:37;;;;;;;23.48;11.38;;;19.80;99.90;;;;;;4866891;29;20029;-77
2022/08/26 01:38:06;;;;;;;19.55;9.88;;;20.00;99.90;;;;;;4849882;29;20048;-81
2022/08/26 01:40:37;;;;;;;22.23;10.10;;;20.20;99.90;;;;;;4864544;29;20031;-83
2022/08/26 01:43:06;;;;;;;18.52;10.57;;;20.20;99.90;;;;;;4866245;29;20226;-78
2022/08/26 01:45:34;;;;;;;18.30;10.27;;;20.30;99.90;;;;;;4864502;29;20603;-82
2022/08/26 01:48:06;;;;;;;26.25;10.77;;;20.50;99.90;;;;;;4866341;29;20033;-82
2022/08/26 01:50:34;;;;;;;19.38;10.15;;;17.10;99.90;;;;;;4865875;29;20774;-76
2022/08/26 01:53:04;;;;;;;26.58;13.50;;;20.20;99.90;;;;;;4864658;29;20047;-78
2022/08/26 01:55:31;;;;;;;22.67;10.10;;;20.20;99.90;;;;;;4865201;29;20089;-78
2022/08/26 01:58:00;;;;;;;21.27;10.90;;;20.40;99.90;;;;;;4864589;29;20027;-78
2022/08/26 02:00:26;;;;;;;18.38;11.07;;;20.60;99.90;;;;;;4864983;29;20041;-78
2022/08/26 02:03:15;;;;;;;18.75;10.80;;;20.30;99.90;;;;;;4866900;29;20690;-79
2022/08/26 02:05:58;;;;;;;21.45;11.13;;;20.10;99.90;;;;;;4868188;29;20030;-80
2022/08/26 02:08:30;;;;;;;23.92;10.98;;;19.90;99.90;;;;;;4868618;29;20033;-82
2022/08/26 02:10:57;;;;;;;29.15;12.50;;;19.20;99.90;;;;;;4868331;29;20026;-80
2022/08/26 02:13:26;;;;;;;27.70;12.93;;;19.30;99.90;;;;;;4870539;29;20507;-79
2022/08/26 02:15:53;;;;;;;21.90;11.55;;;18.70;99.90;;;;;;4867030;29;20036;-78
2022/08/26 02:18:19;;;;;;;23.55;10.95;;;18.60;99.90;;;;;;4851466;29;20024;-81
2022/08/26 02:20:45;;;;;;;24.90;12.65;;;18.70;99.90;;;;;;4868295;29;20551;-78
2022/08/26 02:23:10;;;;;;;21.55;11.15;;;18.60;99.90;;;;;;4867781;29;20029;-80
2022/08/26 02:25:52;;;;;;;21.58;11.82;;;18.90;99.90;;;;;;4867895;29;20037;-77
2022/08/26 02:28:19;;;;;;;22.23;11.80;;;;;;;;;;4868545;29;20028;-76
2022/08/26 02:30:46;;;;;;;20.40;11.73;;;19.40;99.90;;;;;;4868277;29;20235;-76
2022/08/26 02:33:12;;;;;;;19.83;10.90;;;19.60;99.90;;;;;;4868238;29;20440;-79
2022/08/26 02:35:38;;;;;;;19.08;11.73;;;18.50;99.90;;;;;;4867677;29;20432;-76
2022/08/26 02:38:07;;;;;;;19.70;10.63;;;19.90;99.90;;;;;;4868059;29;20048;-78
2022/08/26 02:40:36;;;;;;;21.48;10.80;;;20.00;99.90;;;;;;4867985;29;20032;-79
2022/08/26 02:43:05;;;;;;;29.02;12.88;;;19.90;99.90;;;;;;4867610;29;20032;-80
2022/08/26 02:45:32;;;;;;;22.88;11.30;;;;;;;;;;4850738;29;20333;-76
2022/08/26 02:47:59;;;;;;;23.23;12.48;;;19.40;99.90;;;;;;4866717;29;20025;-83
2022/08/26 02:50:26;;;;;;;20.92;11.80;;;19.00;99.90;;;;;;4867156;29;20028;-78
2022/08/26 02:52:52;;;;;;;21.17;11.80;;;18.50;99.90;;;;;;4867810;29;20056;-81
2022/08/26 02:55:22;;;;;;;20.17;11.88;;;18.40;99.90;;;;;;4867076;29;20031;-77
2022/08/26 02:57:48;;;;;;;27.00;13.50;;;18.10;99.90;;;;;;4866860;29;20643;-76
2022/08/26 03:00:14;;;;;;;21.02;11.73;;;18.10;99.90;;;;;;4867129;29;20711;-79
2022/08/26 03:02:40;;;;;;;27.95;13.30;;;18.00;99.90;;;;;;4867054;29;20021;-78
2022/08/26 03:05:07;;;;;;;28.63;12.20;;;18.40;99.90;;;;;;4867254;29;20691;-77
2022/08/26 03:07:33;;;;;;;28.40;12.70;;;17.90;99.90;;;;;;4868176;29;20033;-78
2022/08/26 03:09:59;;;;;;;25.67;12.85;;;17.80;99.90;;;;;;4867792;29;20052;-81
2022/08/26 03:12:25;;;;;;;200.55;32.88;;;17.50;99.90;;;;;;4867428;29;20036;-78
2022/08/26 03:14:52;;;;;;;233.07;26.63;;;17.50;99.90;;;;;;4849593;29;20619;-78
2022/08/26 03:17:23;;;;;;;29.33;11.15;;;16.30;99.90;;;;;;4867101;29;20541;-84
2022/08/26 03:19:51;;;;;;;30.40;15.60;;;17.30;99.90;;;;;;4868048;29;20021;-80
2022/08/26 03:22:19;;;;;;;28.73;12.32;;;17.30;99.90;;;;;;4851073;29;20133;-86
2022/08/26 03:24:48;;;;;;;31.38;12.68;;;17.80;99.90;;;;;;4867312;29;20052;-78
2022/08/26 03:27:14;;;;;;;33.03;11.27;;;17.20;99.90;;;;;;4867076;29;20029;-75
2022/08/26 03:32:27;;;;;;;16.75;9.07;;;18.90;99.90;;;;;;4867665;29;20590;-80
2022/08/26 03:34:53;;;;;;;17.27;8.73;;;;;;;;;;4866773;29;20029;-81
2022/08/26 03:37:20;;;;;;;23.90;9.13;;;19.20;99.90;;;;;;4866830;29;20039;-77
2022/08/26 03:39:46;;;;;;;19.13;9.80;;;19.40;99.90;;;;;;4868157;29;20032;-83
2022/08/26 03:42:13;;;;;;;16.25;9.10;;;19.80;99.90;;;;;;4870878;29;20077;-78
2022/08/26 03:44:39;;;;;;;18.92;8.38;;;19.90;99.90;;;;;;4867411;29;20025;-82
2022/08/26 03:47:06;;;;;;;23.58;9.55;;;20.10;99.90;;;;;;4865572;29;20033;-78
2022/08/26 03:49:33;;;;;;;17.17;9.05;;;20.30;99.90;;;;;;4850069;29;20779;-82
2022/08/26 03:51:59;;;;;;;20.55;8.88;;;20.40;99.90;;;;;;4867116;29;20061;-79
2022/08/26 03:54:25;;;;;;;14.45;7.15;;;20.50;99.90;;;;;;4874531;29;20145;-79
2022/08/26 03:56:51;;;;;;;27.17;9.50;;;20.50;99.90;;;;;;4865214;29;20590;-82
2022/08/26 03:59:20;;;;;;;19.25;7.82;;;20.50;99.90;;;;;;4869976;29;20108;-80
2022/08/26 04:01:54;;;;;;;21.98;11.00;;;20.20;99.90;;;;;;4868746;29;20492;-78
2022/08/26 04:04:22;;;;;;;26.45;13.85;;;20.50;99.90;;;;;;4869396;29;20029;-76
2022/08/26 04:06:49;;;;;;;21.17;11.43;;;;;;;;;;4867964;29;20072;-88
2022/08/26 04:09:18;;;;;;;15.80;7.75;;;20.70;99.90;;;;;;4866838;29;20424;-83
2022/08/26 04:11:45;;;;;;;18.65;7.50;;;21.20;99.90;;;;;;4866774;29;20029;-87
2022/08/26 04:14:18;;;;;;;14.95;8.65;;;20.60;99.90;;;;;;4850484;29;20029;-77
2022/08/26 04:16:45;;;;;;;6.72;3.70;;;20.30;99.90;;;;;;4849880;29;20032;-77
2022/08/26 04:19:13;;;;;;;7.47;4.18;;;20.50;99.90;;;;;;4865514;29;20041;-76
2022/08/26 04:21:40;;;;;;;22.75;9.60;;;18.30;99.90;;;;;;4849711;29;20128;-78
2022/08/26 04:24:08;;;;;;;18.85;8.68;;;20.90;99.90;;;;;;4866022;29;20604;-81
2022/08/26 04:26:38;;;;;;;4.18;2.60;;;20.90;99.90;;;;;;4865652;29;20772;-78
2022/08/26 04:29:10;;;;;;;2.28;1.67;;;21.00;99.90;;;;;;4866266;29;20321;-79
2022/08/26 04:31:36;;;;;;;4.32;2.88;;;21.00;99.90;;;;;;4870325;29;20045;-84
2022/08/26 04:34:04;;;;;;;0.95;0.90;;;20.20;99.90;;;;;;4866800;29;20047;-85
2022/08/26 04:36:31;;;;;;;1.25;1.15;;;;;;;;;;4865229;29;20064;-79
2022/08/26 04:39:01;;;;;;;1.27;1.20;;;20.90;99.90;;;;;;4864954;29;20679;-77
2022/08/26 04:41:27;;;;;;;3.50;1.13;;;20.80;99.90;;;;;;4864884;29;20037;-80
2022/08/26 04:43:53;;;;;;;2.55;1.13;;;20.70;99.90;;;;;;4866966;29;20029;-82
2022/08/26 04:46:25;;;;;;;0.00;0.00;;;20.70;99.90;;;;;;4865761;29;20045;-77
2022/08/26 04:48:53;;;;;;;0.00;0.00;;;20.70;99.90;;;;;;4865396;29;20223;-81
2022/08/26 04:51:20;;;;;;;0.00;0.00;;;20.80;99.90;;;;;;4870701;29;20265;-81
2022/08/26 04:53:46;;;;;;;0.00;0.00;;;20.20;99.90;;;;;;4866060;29;20612;-80
2022/08/26 04:56:13;;;;;;;0.30;0.30;;;20.60;99.90;;;;;;4866192;29;20025;-81
2022/08/26 04:58:40;;;;;;;0.00;0.00;;;20.50;99.90;;;;;;4866552;29;20063;-83
2022/08/26 05:01:07;;;;;;;0.00;0.00;;;19.90;99.90;;;;;;4867494;29;20077;-84
2022/08/26 05:03:32;;;;;;;0.00;0.00;;;20.00;99.90;;;;;;4864448;29;20065;-76
2022/08/26 05:06:02;;;;;;;0.03;0.03;;;20.20;99.90;;;;;;4867489;29;20514;-78
2022/08/26 05:08:28;;;;;;;0.10;0.10;;;20.30;99.90;;;;;;4865657;29;20485;-77
2022/08/26 05:10:54;;;;;;;0.10;0.10;;;20.20;99.90;;;;;;4865600;29;20036;-78
2022/08/26 05:13:21;;;;;;;0.95;0.95;;;20.40;99.90;;;;;;4865494;29;20025;-79
2022/08/26 05:15:48;;;;;;;0.00;0.00;;;20.50;99.90;;;;;;4867333;29;20768;-77
2022/08/26 05:18:17;;;;;;;0.00;0.00;;;20.70;99.90;;;;;;4865330;29;20057;-77
2022/08/26 05:20:47;;;;;;;0.00;0.00;;;20.80;99.90;;;;;;4868103;29;20431;-77
2022/08/26 05:23:13;;;;;;;0.00;0.00;;;20.80;99.90;;;;;;4865612;29;20409;-77
2022/08/26 05:25:41;;;;;;;0.08;0.08;;;20.80;99.90;;;;;;4865364;29;20763;-77
2022/08/26 05:28:18;;;;;;;0.10;0.10;;;20.90;99.90;;;;;;4866557;29;20021;-79
2022/08/26 05:30:45;;;;;;;0.00;0.00;;;20.90;99.90;;;;;;4865669;29;20120;-80
2022/08/26 05:33:11;;;;;;;0.10;0.10;;;21.00;99.90;;;;;;4849055;29;20049;-76
2022/08/26 05:35:38;;;;;;;0.13;0.13;;;21.20;99.90;;;;;;4863920;29;20024;-77
2022/08/26 05:38:07;;;;;;;0.00;0.00;;;21.20;99.90;;;;;;4867372;29;20116;-81
2022/08/26 05:40:37;;;;;;;0.08;0.08;;;21.10;99.90;;;;;;4869370;29;20025;-77
2022/08/26 05:43:09;;;;;;;0.00;0.00;;;21.20;99.90;;;;;;4852904;29;20712;-78
2022/08/26 05:45:37;;;;;;;0.10;0.10;;;21.30;99.90;;;;;;4868446;29;20045;-77
2022/08/26 05:48:06;;;;;;;0.00;0.00;;;24.40;99.90;;;;;;4869693;29;20059;-79
2022/08/26 05:50:39;;;;;;;0.00;0.00;;;21.50;99.90;;;;;;4868891;29;20107;-83
2022/08/26 05:53:07;;;;;;;;;;;20.20;99.90;;;;;;4868078;29;20220;-79
2022/08/26 05:55:33;;;;;;;2.45;2.30;;;20.90;99.90;;;;;;4869155;29;19907;-78
2022/08/26 05:57:59;;;;;;;0.00;0.00;;;;;;;;;;4868664;29;20677;-81
2022/08/26 06:00:26;;;;;;;0.75;0.68;;;;;;;;;;4868738;29;20057;-81
2022/08/26 06:02:52;;;;;;;0.00;0.00;;;21.20;99.90;;;;;;4867949;29;20029;-77
2022/08/26 06:05:20;;;;;;;0.38;0.38;;;20.70;99.90;;;;;;4869174;29;20138;-76
2022/08/26 06:10:32;;;;;;;0.00;0.00;;;21.40;99.90;;;;;;4869273;29;20089;-80
2022/08/26 06:13:01;;;;;;;0.00;0.00;;;19.50;99.90;;;;;;4869008;29;20117;-83
2022/08/26 06:15:27;;;;;;;1.08;1.05;;;21.70;99.90;;;;;;4868924;29;20033;-79
2022/08/26 06:17:52;;;;;;;0.00;0.00;;;21.70;99.90;;;;;;4868192;29;20121;-83
2022/08/26 06:20:18;;;;;;;0.00;0.00;;;21.90;99.90;;;;;;4869510;29;20060;-82
2022/08/26 06:25:37;;;;;;;0.00;0.00;;;19.50;99.90;;;;;;4868535;29;20426;-79
2022/08/26 06:28:06;;;;;;;0.08;0.08;;;22.00;99.90;;;;;;4867896;29;20025;-79
2022/08/26 06:30:40;;;;;;;0.10;0.10;;;21.80;99.90;;;;;;4868304;29;20112;-79
2022/08/26 06:33:07;;;;;;;1.65;1.58;;;21.60;99.90;;;;;;4869230;29;20105;-80
2022/08/26 06:35:41;;;;;;;0.05;0.05;;;21.80;99.90;;;;;;4868895;29;20029;-81
2022/08/26 06:38:08;;;;;;;0.88;0.88;;;21.90;99.90;;;;;;4868792;29;20120;-83
2022/08/26 06:40:41;;;;;;;0.28;0.28;;;21.90;99.90;;;;;;4868307;29;20025;-81
2022/08/26 06:43:07;;;;;;;0.00;0.00;;;21.90;99.90;;;;;;4868669;29;20036;-77
2022/08/26 06:45:33;;;;;;;0.10;0.10;;;21.80;99.90;;;;;;4867030;29;20063;-77
2022/08/26 06:47:59;;;;;;;0.65;0.65;;;21.70;99.90;;;;;;4865978;29;20037;-79
2022/08/26 06:50:25;;;;;;;0.00;0.00;;;21.90;99.90;;;;;;4867243;29;20025;-80
2022/08/26 06:52:52;;;;;;;0.10;0.10;;;;;;;;;;4867139;29;20025;-76
2022/08/26 06:55:18;;;;;;;0.10;0.10;;;21.10;99.90;;;;;;4867316;29;20018;-76
2022/08/26 06:57:44;;;;;;;3.17;3.05;;;21.30;99.90;;;;;;4868997;29;20028;-77
2022/08/26 07:00:11;;;;;;;0.10;0.10;;;20.90;99.90;;;;;;4869374;29;20021;-79
2022/08/26 07:02:37;;;;;;;0.25;0.25;;;21.10;99.90;;;;;;4868289;29;20041;-78
2022/08/26 07:05:04;;;;;;;0.10;0.10;;;21.00;99.90;;;;;;4866565;29;20041;-78
2022/08/26 07:07:30;;;;;;;0.50;0.50;;;21.00;99.90;;;;;;4868687;29;20025;-83
2022/08/26 07:09:56;;;;;;;0.65;0.65;;;21.00;99.90;;;;;;4868242;29;20197;-77
2022/08/26 07:12:22;;;;;;;0.22;0.22;;;20.90;99.90;;;;;;4866962;29;20085;-80
2022/08/26 07:15:12;;;;;;;0.10;0.10;;;20.90;99.90;;;;;;4867095;29;20033;-88
2022/08/26 07:17:38;;;;;;;0.13;0.13;;;20.40;99.90;;;;;;4866456;29;20029;-80
2022/08/26 07:20:06;;;;;;;0.98;0.98;;;21.00;99.90;;;;;;4870400;29;20048;-85
2022/08/26 07:22:33;;;;;;;0.30;0.30;;;21.20;99.90;;;;;;4872932;29;20108;-82
2022/08/26 07:24:59;;;;;;;0.13;0.13;;;21.30;99.90;;;;;;4868204;29;20056;-82
2022/08/26 07:27:24;;;;;;;0.10;0.10;;;20.90;99.90;;;;;;4867799;29;20025;-84
2022/08/26 07:29:55;;;;;;;0.10;0.10;;;21.30;99.90;;;;;;4867987;29;20021;-86
2022/08/26 07:32:21;;;;;;;0.10;0.10;;;22.00;99.90;;;;;;4867256;29;20244;-78
2022/08/26 07:34:46;;;;;;;0.00;0.00;;;21.60;99.90;;;;;;4867630;29;20703;-78
2022/08/26 07:37:13;;;;;;;0.00;0.00;;;21.60;99.90;;;;;;4867918;29;20029;-78
2022/08/26 07:39:40;;;;;;;0.10;0.10;;;20.60;99.90;;;;;;4867466;29;20037;-77
2022/08/26 07:42:08;;;;;;;0.93;0.73;;;21.90;99.90;;;;;;4866225;29;20638;-77
2022/08/26 07:44:38;;;;;;;0.00;0.00;;;22.60;99.90;;;;;;4868382;29;20544;-79
2022/08/26 07:47:06;;;;;;;0.63;0.63;;;22.20;99.90;;;;;;4866540;29;20070;-78
2022/08/26 07:49:31;;;;;;;0.00;0.00;;;22.20;99.90;;;;;;4866359;29;20025;-80
2022/08/26 07:51:58;;;;;;;0.20;0.20;;;22.20;99.90;;;;;;4867836;29;20021;-87
2022/08/26 07:54:24;;;;;;;0.22;0.22;;;22.40;99.90;;;;;;4851531;29;20033;-77
2022/08/26 07:56:49;;;;;;;0.50;0.50;;;22.50;99.90;;;;;;4867133;29;20021;-79
2022/08/26 07:59:17;;;;;;;0.00;0.00;;;22.50;99.90;;;;;;4869882;29;20033;-79
2022/08/26 08:01:44;;;;;;;0.00;0.00;;;22.60;99.90;;;;;;4850420;29;20093;-80
2022/08/26 08:04:10;;;;;;;0.10;0.10;;;22.80;99.90;;;;;;4868217;29;20068;-84
2022/08/26 08:06:37;;;;;;;0.60;0.60;;;22.80;99.90;;;;;;4866100;29;20586;-86
2022/08/26 08:09:04;;;;;;;0.10;0.10;;;23.00;99.90;;;;;;4866746;29;20022;-78
2022/08/26 08:11:30;;;;;;;0.10;0.10;;;19.50;99.90;;;;;;4870396;29;20029;-88
2022/08/26 08:13:56;;;;;;;0.00;0.00;;;23.10;99.90;;;;;;4868682;29;20037;-82
2022/08/26 08:16:29;;;;;;;2.05;1.00;;;23.10;99.90;;;;;;4868525;29;20036;-79
2022/08/26 08:18:55;;;;;;;0.00;0.00;;;23.10;99.90;;;;;;4867933;29;20089;-85
2022/08/26 08:21:24;;;;;;;0.10;0.10;;;23.30;99.90;;;;;;4868270;29;20021;-88
2022/08/26 08:23:52;;;;;;;0.80;0.80;;;23.30;99.90;;;;;;4867558;29;20535;-93
2022/08/26 08:26:17;;;;;;;1.48;1.38;;;23.40;99.90;;;;;;4854631;29;20611;-93
2022/08/26 08:28:45;;;;;;;0.10;0.10;;;24.10;99.90;;;;;;4854357;29;20040;-89
2022/08/26 08:31:20;;;;;;;0.00;0.00;;;23.70;99.90;;;;;;4868443;29;20025;-90
2022/08/26 08:33:47;;;;;;;0.20;0.20;;;25.00;99.90;;;;;;4865874;29;20064;-90
2022/08/26 08:36:15;;;;;;;0.10;0.10;;;24.10;99.90;;;;;;4881951;29;20013;-74
2022/08/26 08:38:42;;;;;;;0.00;0.00;;;23.50;99.90;;;;;;4873664;29;20024;-82
2022/08/26 08:41:33;;;;;;;0.80;0.80;;;24.40;99.90;;;;;;4870641;29;20660;-80
2022/08/26 08:44:00;;;;;;;0.10;0.10;;;24.50;99.90;;;;;;4869225;29;20036;-78
2022/08/26 08:46:28;;;;;;;0.20;0.20;;;24.60;99.90;;;;;;4868217;29;20048;-77
2022/08/26 08:48:58;;;;;;;0.00;0.00;;;24.70;99.90;;;;;;4866716;29;20058;-79
2022/08/26 08:51:53;;;;;;;0.45;0.45;;;24.70;99.90;;;;;;4866912;29;20376;-82
2022/08/26 08:54:19;;;;;;;0.10;0.10;;;24.90;99.90;;;;;;4866664;29;20798;-86
2022/08/26 08:56:53;;;;;;;0.20;0.20;;;25.00;99.90;;;;;;4866179;29;20071;-86
2022/08/26 08:59:26;;;;;;;0.00;0.00;;;25.10;99.90;;;;;;4865281;29;20028;-76
2022/08/26 09:02:10;;;;;;;;;;;25.00;99.90;;;;;;4869975;29;20116;-79
2022/08/26 09:04:41;;;;;;;0.00;0.00;;;25.00;99.90;;;;;;4870377;29;19907;-76
2022/08/26 09:07:17;;;;;;;0.55;0.55;;;25.10;99.90;;;;;;4865956;29;20045;-77
2022/08/26 09:09:54;;;;;;;0.28;0.28;;;26.40;99.90;;;;;;4866152;29;20579;-78
2022/08/26 09:12:25;;;;;;;0.50;0.50;;;25.20;99.90;;;;;;4865907;29;20032;-82
2022/08/26 09:14:56;;;;;;;0.85;0.57;;;25.40;99.90;;;;;;4865377;29;20036;-77
2022/08/26 09:17:51;;;;;;;0.20;0.20;;;25.50;99.90;;;;;;4866773;29;20693;-78
2022/08/26 09:20:26;;;;;;;0.40;0.40;;;25.70;99.90;;;;;;4865314;29;20025;-84
2022/08/26 09:22:56;;;;;;;0.20;0.20;;;25.70;99.90;;;;;;4865803;29;20032;-80
2022/08/26 09:25:22;;;;;;;0.38;0.38;;;26.00;99.90;;;;;;4866682;29;20048;-77
2022/08/26 09:27:51;;;;;;;0.00;0.00;;;26.00;99.90;;;;;;4866430;29;20060;-82
2022/08/26 09:30:28;;;;;;;1.08;0.65;;;26.10;99.90;;;;;;4867715;29;20681;-77
2022/08/26 09:33:07;;;;;;;0.00;0.00;;;26.10;99.90;;;;;;4867172;29;20736;-84
2022/08/26 09:35:45;;;;;;;0.10;0.10;;;26.30;99.90;;;;;;4868555;29;20041;-81
2022/08/26 09:38:37;;;;;;;0.00;0.00;;;26.40;99.90;;;;;;4868171;29;20021;-80
2022/08/26 09:41:07;;;;;;;0.05;0.05;;;26.50;99.80;;;;;;4855128;29;20065;-79
2022/08/26 09:43:33;;;;;;;0.45;0.45;;;26.40;99.30;;;;;;4870889;29;20025;-78
2022/08/26 09:46:21;;;;;;;0.15;0.15;;;26.50;99.60;;;;;;4872827;29;20040;-78
2022/08/26 09:48:48;;;;;;;0.00;0.00;;;26.60;99.30;;;;;;4867547;29;20104;-77
2022/08/26 09:51:21;;;;;;;0.70;0.70;;;27.00;99.30;;;;;;4866193;29;20040;-85
2022/08/26 09:53:54;;;;;;;0.40;0.40;;;26.80;99.00;;;;;;4866522;29;20021;-80
2022/08/26 09:56:28;;;;;;;3.25;2.35;;;27.30;98.20;;;;;;4866451;29;20044;-79
2022/08/26 09:58:56;;;;;;;0.10;0.10;;;27.10;98.40;;;;;;4866465;29;20169;-77
2022/08/26 10:01:22;;;;;;;0.60;0.60;;;27.20;98.10;;;;;;4869799;29;20205;-79
2022/08/26 10:03:51;;;;;;;0.00;0.00;;;27.20;98.60;;;;;;4868751;29;20666;-77
2022/08/26 10:06:18;;;;;;;1.17;1.08;;;27.20;98.30;;;;;;4865929;29;20423;-77
2022/08/26 10:09:04;;;;;;;0.40;0.40;;;27.50;97.60;;;;;;4867580;29;20604;-87
2022/08/26 10:11:38;;;;;;;0.20;0.20;;;27.00;97.80;;;;;;4868294;29;20021;-80
2022/08/26 10:14:41;;;;;;;3.47;1.88;;;29.70;97.60;;;;;;4867898;29;20063;-83
2022/08/26 10:17:22;;;;;;;0.00;0.00;;;27.80;96.80;;;;;;4913424;23;20048;-80
2022/08/26 10:20:29;;;;;;;0.10;0.10;;;27.90;97.90;;;;;;4928386;29;20083;-84
2022/08/26 10:23:17;;;;;;;0.00;0.00;;;27.80;97.20;;;;;;4927784;29;20569;-81
2022/08/26 10:26:03;;;;;;;0.00;0.00;;;29.00;97.60;;;;;;4929267;29;20238;-81
2022/08/26 10:29:00;;;;;;;0.10;0.10;;;27.90;96.70;;;;;;4910566;29;20670;-81
2022/08/26 10:31:52;;;;;;;1.55;1.40;;;28.10;96.70;;;;;;4870754;29;20619;-81
2022/08/26 10:34:18;;;;;;;0.00;0.00;;;26.60;96.00;;;;;;4872658;29;20562;-80
2022/08/26 10:36:57;;;;;;;4.13;3.90;;;28.60;95.80;;;;;;4886273;29;20145;-81
2022/08/26 10:39:52;;;;;;;0.00;0.00;;;28.90;95.30;;;;;;4888188;29;20052;-81
2022/08/26 10:42:32;;;;;;;1.65;1.55;;;29.10;95.00;;;;;;4869888;29;20073;-80
2022/08/26 10:45:05;;;;;;;0.63;0.63;;;29.30;94.60;;;;;;4885609;29;20057;-80
2022/08/26 10:47:58;;;;;;;2.70;2.50;;;29.50;93.80;;;;;;4871257;29;20131;-81
2022/08/26 10:50:34;;;;;;;0.10;0.10;;;30.00;93.90;;;;;;4886981;29;20069;-81
2022/08/26 10:53:22;;;;;;;4.63;0.88;;;29.50;93.10;;;;;;4886598;29;20105;-80
2022/08/26 10:56:09;;;;;;;0.40;0.40;;;32.20;94.10;;;;;;4871235;29;20763;-79
2022/08/26 10:58:38;;;;;;;0.17;0.17;;;29.60;93.00;;;;;;4873639;29;20101;-82
2022/08/26 11:04:42;;;;;;;0.70;0.43;;;29.80;92.00;;;;;;4887304;29;20035;-81
2022/08/26 11:07:31;;;;;;;0.00;0.00;;;30.30;91.70;;;;;;4886762;29;20033;-92
2022/08/26 11:09:59;;;;;;;1.05;1.00;;;30.40;91.60;;;;;;4925815;29;20023;-83
2022/08/26 11:12:35;;;;;;;1.48;1.17;;;30.40;91.20;;;;;;4910671;29;20016;-82
2022/08/26 11:15:09;;;;;;;0.10;0.10;;;31.90;91.50;;;;;;4925943;29;20016;-79
2022/08/26 11:17:44;;;;;;;1.23;0.63;;;30.50;90.50;;;;;;4926743;29;20160;-80
2022/08/26 11:20:47;;;;;;;0.70;0.65;;;30.60;90.00;;;;;;4912078;29;20078;-80
2022/08/26 11:23:25;;;;;;;0.32;0.20;;;30.70;90.10;;;;;;4911924;29;20046;-80
2022/08/26 11:28:54;;;;;;;0.22;0.20;;;31.80;88.30;;;;;;4915919;23;20066;-81
2022/08/26 11:31:32;;;;;;;0.98;0.93;;;31.90;85.20;;;;;;4909932;29;20532;-80
2022/08/26 11:34:06;;;;;;;0.52;0.30;;;31.60;88.50;;;;;;4893817;29;20032;-83
2022/08/26 11:36:47;;;;;;;1.13;0.82;;;33.00;86.20;;;;;;4907610;29;20059;-81
2022/08/26 11:39:19;;;;;;;0.43;0.43;;;32.30;84.20;;;;;;4908969;29;20793;-83
2022/08/26 11:44:44;;;;;;;2.35;1.33;;;32.50;79.80;;;;;;971561;27;20340;-85
2022/08/26 11:47:15;;;;;;;1.98;1.45;;;32.10;79.90;;;;;;4915311;29;20044;-88
2022/08/26 11:49:41;;;;;;;0.00;0.00;;;32.40;80.00;;;;;;4889730;29;20039;-80
2022/08/26 11:52:13;;;;;;;0.38;0.38;;;29.60;78.40;;;;;;4906234;29;20099;-86
2022/08/26 11:54:39;;;;;;;1.45;1.10;;;32.30;78.30;;;;;;4889312;29;20016;-81
2022/08/26 11:57:12;;;;;;;0.45;0.45;;;33.00;77.10;;;;;;4906843;29;20024;-81
2022/08/26 11:59:39;;;;;;;;;;;33.30;75.60;;;;;;4891649;29;20545;-83
2022/08/26 12:02:34;;;;;;;0.45;0.32;;;32.60;70.00;;;;;;4905016;29;19911;-81
2022/08/26 12:05:13;;;;;;;1.52;0.80;;;34.00;70.90;;;;;;4905234;29;20024;-87
2022/08/26 12:07:49;;;;;;;0.90;0.50;;;35.10;71.90;;;;;;4904919;29;20115;-84
2022/08/26 12:10:29;;;;;;;0.20;0.20;;;34.40;70.60;;;;;;4887252;29;20020;-80
2022/08/26 12:13:03;;;;;;;1.55;1.10;;;35.50;69.70;;;;;;4888985;29;20699;-86
2022/08/26 12:15:34;;;;;;;0.15;0.15;;;34.60;65.40;;;;;;4890580;29;20032;-81
2022/08/26 12:18:34;;;;;;;0.40;0.40;;;34.70;65.70;;;;;;4889441;29;20032;-81
2022/08/26 12:21:17;;;;;;;2.60;2.50;;;35.30;64.30;;;;;;4815542;29;20094;-84
2022/08/26 12:23:56;;;;;;;2.35;0.85;;;38.80;67.20;;;;;;4815522;29;20120;-82
2022/08/26 12:26:36;;;;;;;2.65;1.63;;;35.60;63.50;;;;;;4812206;29;20034;-81
2022/08/26 12:29:20;;;;;;;1.05;0.93;;;35.30;64.60;;;;;;4815793;29;20085;-82
2022/08/26 12:31:49;;;;;;;1.58;0.68;;;35.70;61.60;;;;;;4831887;29;20038;-80
2022/08/26 12:34:26;;;;;;;0.70;0.55;;;35.90;62.70;;;;;;4834260;29;20384;-81
2022/08/26 12:36:56;;;;;;;0.10;0.10;;;36.50;60.10;;;;;;4830408;29;20102;-80
2022/08/26 12:39:32;;;;;;;0.32;0.32;;;36.40;59.40;;;;;;4827533;29;20050;-84
2022/08/26 12:42:02;;;;;;;0.55;0.20;;;37.70;60.00;;;;;;4830029;29;20178;-82
2022/08/26 12:44:43;;;;;;;0.60;0.45;;;36.70;59.00;;;;;;4829043;29;20739;-87
2022/08/26 12:47:14;;;;;;;0.35;0.22;;;36.20;57.00;;;;;;4830029;29;20678;-83
2022/08/26 12:49:42;;;;;;;0.80;0.55;;;37.20;55.10;;;;;;4815768;29;20801;-86
2022/08/26 12:52:29;;;;;;;0.22;0.22;;;38.40;53.30;;;;;;4815130;29;20029;-82
2022/08/26 12:55:05;;;;;;;0.10;0.10;;;39.20;51.20;;;;;;4831008;29;20676;-82
2022/08/26 12:57:40;;;;;;;0.32;0.32;;;38.50;51.90;;;;;;4870505;29;20136;-80
2022/08/26 13:00:49;;;;;;;3.47;0.57;;;38.60;50.40;;;;;;4888992;29;20075;-80
2022/08/26 13:03:50;;;;;;;0.52;0.32;;;38.50;47.60;;;;;;4836002;29;20041;-83
2022/08/26 13:06:29;;;;;;;0.33;0.10;;;38.80;50.00;;;;;;4836534;29;20053;-81
2022/08/26 13:09:07;;;;;;;3.75;3.47;;;37.30;46.80;;;;;;4817639;29;20274;-79
2022/08/26 13:12:03;;;;;;;0.47;0.30;;;38.00;46.10;;;;;;4816564;29;20026;-85
2022/08/26 13:14:29;;;;;;;0.25;0.25;;;40.30;46.70;;;;;;4812074;29;20046;-80
2022/08/26 13:17:07;;;;;;;1.38;0.93;;;40.10;50.00;;;;;;4812571;29;20034;-82
2022/08/26 13:19:36;;;;;;;2.08;0.60;;;41.60;53.60;;;;;;4817836;29;20152;-83
2022/08/26 13:22:10;;;;;;;0.30;0.28;;;39.30;54.20;;;;;;4827182;29;20022;-80
2022/08/26 13:24:42;;;;;;;0.22;0.22;;;38.80;54.50;;;;;;4811621;29;20061;-80